Reedsport, Oregon
Current Conditions -  °F | °C
As of 5:15 PM on Tuesday 21 Oct 2014 (Local Time) from KOTH Reporting Station
Overcast Overcast  
Wind Chill: 63°   Ceiling: 8000
Heat Index: 63°   Visibility: 10mi
Dew Point: 54°   Wind: 7mph
Humidity: 72%   Direction: 170°S
Pressure: 29.97"   Gusts: NA
Location:  43.7°N, 124.1°W
Report Text: KOTH 220015Z 17006KT 10SM FEW055 SCT070 OVC080 17/12 A2997 RMK AO1
Loading
Personal Weather Stations






























Interactive Weather Map
Tropical Storm Tracking
New forecast layout! Learn more

10-Day Weather Forecast

Advertisements
Track Severe Weather on mobile